Time;durP1;ratioP1;P1;durP2;ratioP2;P2;SDS_P1;SDS_P2;PMS_P1;PMS_P2;Temp;Humidity;BMP_temperature;BMP_pressure;BME280_temperature;BME280_humidity;BME280_pressure;Samples;Min_cycle;Max_cycle;Signal;HPM_P1;HPM_P2
2021/06/24 00:01:54;;;;;;;24.20;15.18;;;;;;;24.02;77.56;99533.97;5097120;28;20411;-70
2021/06/24 00:04:24;;;;;;;26.60;15.90;;;;;;;24.00;77.53;99526.22;5097023;28;20383;-70
2021/06/24 00:06:56;;;;;;;23.92;15.60;;;;;;;24.03;77.26;99520.00;5097275;28;20054;-70
2021/06/24 00:09:26;;;;;;;24.77;15.45;;;;;;;24.00;77.22;99526.22;5097011;28;20083;-70
2021/06/24 00:11:59;;;;;;;24.95;15.80;;;;;;;23.98;77.26;99528.09;5097034;28;20040;-70
2021/06/24 00:14:29;;;;;;;25.58;15.43;;;;;;;24.02;77.35;99522.72;5096345;28;20055;-70
2021/06/24 00:17:00;;;;;;;;;;;;;;;24.02;77.16;99511.34;5097185;28;20064;-69
2021/06/24 00:19:31;;;;;;;21.60;14.30;;;;;;;23.94;77.15;99508.34;5096858;28;20410;-70
2021/06/24 00:22:03;;;;;;;;;;;;;;;23.99;77.14;99503.69;5097114;28;20571;-69
2021/06/24 00:24:34;;;;;;;22.38;15.18;;;;;;;24.00;76.99;99505.38;5097104;28;19965;-70
2021/06/24 00:27:04;;;;;;;22.17;15.30;;;;;;;23.93;77.02;99487.56;5096291;28;20044;-70
2021/06/24 00:29:34;;;;;;;24.13;15.55;;;;;;;23.96;77.17;99503.88;5096583;28;20052;-70
2021/06/24 00:32:07;;;;;;;21.65;14.93;;;;;;;23.91;77.20;99500.69;5096234;28;20513;-70
2021/06/24 00:34:37;;;;;;;25.13;15.18;;;;;;;23.95;77.22;99503.94;5096465;28;20051;-69
2021/06/24 00:37:10;;;;;;;24.58;16.02;;;;;;;23.93;77.27;99504.06;5096199;28;20094;-69
2021/06/24 00:39:44;;;;;;;24.67;14.55;;;;;;;23.93;77.27;99511.88;5096397;28;20060;-70
2021/06/24 00:42:18;;;;;;;24.67;15.30;;;;;;;23.95;77.15;99522.19;5096144;28;20044;-70
2021/06/24 00:44:48;;;;;;;21.90;15.10;;;;;;;23.92;77.24;99515.41;5078305;28;20388;-69
2021/06/24 00:47:21;;;;;;;22.80;15.40;;;;;;;23.92;77.15;99512.78;5078225;28;20060;-69
2021/06/24 00:49:51;;;;;;;22.20;15.00;;;;;;;23.92;77.28;99507.56;5078247;28;20066;-69
2021/06/24 00:52:23;;;;;;;25.23;15.82;;;;;;;23.90;77.31;99499.00;5096172;28;20044;-69
2021/06/24 00:55:01;;;;;;;;;;;;;;;23.89;77.34;99502.56;5095931;28;20495;-69
2021/06/24 00:57:55;;;;;;;22.15;14.02;;;;;;;23.83;77.43;99515.94;5095896;28;19928;-69
2021/06/24 01:00:27;;;;;;;22.38;14.27;;;;;;;23.79;77.55;99517.03;5096073;28;20056;-70
2021/06/24 01:03:00;;;;;;;24.02;15.45;;;;;;;23.82;77.48;99511.66;5095973;28;20083;-69
2021/06/24 01:05:30;;;;;;;25.40;14.70;;;;;;;23.82;77.48;99503.00;5078162;28;20537;-70
2021/06/24 01:08:01;;;;;;;24.88;16.65;;;;;;;23.75;77.58;99484.28;5096171;28;20079;-68
2021/06/24 01:10:42;;;;;;;21.92;15.25;;;;;;;23.90;77.63;99498.16;5095452;28;20484;-68
2021/06/24 01:13:16;;;;;;;19.15;14.70;;;;;;;23.92;77.54;99510.19;5077437;28;20119;-70
2021/06/24 01:15:46;;;;;;;27.42;15.80;;;;;;;23.95;77.51;99507.41;5095642;28;20055;-70
2021/06/24 01:18:18;;;;;;;27.05;14.98;;;;;;;23.96;77.55;99503.88;5095672;28;20048;-70
2021/06/24 01:20:53;;;;;;;23.33;15.63;;;;;;;23.89;77.60;99506.94;5077613;28;20138;-70
2021/06/24 01:23:27;;;;;;;25.20;15.30;;;;;;;23.86;77.78;99517.53;5095587;28;20515;-70
2021/06/24 01:26:01;;;;;;;22.95;15.32;;;;;;;23.92;78.04;99512.78;5095176;28;20624;-68
2021/06/24 01:28:34;;;;;;;23.60;15.18;;;;;;;23.97;77.98;99515.16;5095469;28;20134;-70
2021/06/24 01:31:06;;;;;;;23.13;14.70;;;;;;;23.95;77.81;99512.63;5095382;28;20052;-70
2021/06/24 01:33:39;;;;;;;26.00;14.57;;;;;;;23.98;77.62;99506.38;5095394;28;20068;-70
2021/06/24 01:36:10;;;;;;;21.42;15.52;;;;;;;23.93;77.66;99508.41;5095290;28;20473;-70
2021/06/24 01:38:45;;;;;;;21.13;15.52;;;;;;;23.80;77.92;99508.28;5095591;28;20055;-70
2021/06/24 01:41:26;;;;;;;26.10;15.57;;;;;;;23.69;78.26;99510.66;5095490;28;20127;-70
2021/06/24 01:43:59;;;;;;;23.13;15.07;;;;;;;23.72;78.63;99502.69;5077175;28;20052;-70
2021/06/24 01:46:29;;;;;;;22.02;15.27;;;;;;;23.70;78.56;99506.31;5095104;28;20055;-69
2021/06/24 01:49:02;;;;;;;22.38;15.45;;;;;;;23.65;78.71;99503.13;5095060;28;20490;-70
2021/06/24 01:51:39;;;;;;;23.05;15.45;;;;;;;23.55;79.03;99494.97;5095284;28;20498;-70
2021/06/24 01:54:12;;;;;;;24.48;15.60;;;;;;;23.51;79.08;99506.50;5077453;28;20052;-70
2021/06/24 01:56:43;;;;;;;25.90;15.80;;;;;;;23.42;79.14;99491.38;5094879;28;20054;-70
2021/06/24 01:59:13;;;;;;;27.25;16.52;;;;;;;23.39;79.19;99499.38;5094867;28;20060;-70
2021/06/24 02:01:54;;;;;;;27.27;16.58;;;;;;;23.27;79.77;99493.03;5095111;28;20399;-70
2021/06/24 02:04:44;;;;;;;26.08;16.17;;;;;;;23.39;80.16;99491.56;5076755;28;20432;-70
2021/06/24 02:07:15;;;;;;;23.55;16.80;;;;;;;23.56;79.89;99483.66;5093930;28;20081;-70
2021/06/24 02:09:55;;;;;;;23.38;15.30;;;;;;;23.65;79.77;99483.13;5094682;28;20056;-70
2021/06/24 02:12:30;;;;;;;26.05;16.75;;;;;;;23.62;79.69;99483.28;5076633;28;20402;-70
2021/06/24 02:15:04;;;;;;;25.65;17.63;;;;;;;23.69;79.82;99479.41;5094204;28;20040;-70
2021/06/24 02:17:42;;;;;;;27.27;17.25;;;;;;;23.72;79.55;99479.22;5094511;28;20052;-70
2021/06/24 02:20:18;;;;;;;23.95;16.42;;;;;;;23.73;79.34;99475.66;5076457;28;20060;-70
2021/06/24 02:23:17;;;;;;;26.25;17.40;;;;;;;23.75;79.27;99479.06;5090407;28;20044;-70
2021/06/24 02:25:57;;;;;;;28.25;18.33;;;;;;;23.75;79.21;99473.84;5076687;28;20052;-69
2021/06/24 02:28:44;;;;;;;25.80;17.25;;;;;;;23.73;79.22;99480.88;5094335;28;20074;-70
2021/06/24 02:31:24;;;;;;;26.38;16.95;;;;;;;23.65;79.17;99480.50;5094255;28;20055;-70
2021/06/24 02:33:58;;;;;;;26.52;16.30;;;;;;;23.59;79.09;99473.03;5094499;28;20101;-69
2021/06/24 02:36:51;;;;;;;25.73;16.90;;;;;;;23.68;79.22;99480.31;5094250;28;20052;-70
2021/06/24 02:39:29;;;;;;;29.95;17.30;;;;;;;23.67;79.16;99481.25;5076162;28;20113;-70
2021/06/24 02:42:03;;;;;;;26.08;16.60;;;;;;;23.64;79.02;99484.03;5094149;28;20044;-69
2021/06/24 02:44:39;;;;;;;26.92;16.88;;;;;;;23.62;79.08;99483.28;5076220;28;20059;-70
2021/06/24 02:47:12;;;;;;;24.92;15.80;;;;;;;23.62;79.09;99466.78;5093183;28;20059;-70
2021/06/24 02:49:45;;;;;;;26.85;16.00;;;;;;;23.64;79.08;99489.25;5094323;28;20044;-69
2021/06/24 02:52:18;;;;;;;22.33;15.93;;;;;;;23.57;78.94;99472.28;5093598;28;20052;-69
2021/06/24 02:54:51;;;;;;;27.45;15.98;;;;;;;23.61;78.85;99492.00;5094284;28;20487;-70
2021/06/24 02:57:36;;;;;;;25.90;16.35;;;;;;;23.53;78.80;99489.03;5093945;28;20060;-69
2021/06/24 03:00:12;;;;;;;22.35;15.30;;;;;;;23.49;78.95;99492.69;4616024;22;20077;-70
2021/06/24 03:02:44;;;;;;;22.58;15.45;;;;;;;23.43;79.24;99492.22;5033793;28;20484;-70
2021/06/24 03:05:19;;;;;;;23.35;15.73;;;;;;;23.40;79.43;99481.97;5033772;28;20411;-70
2021/06/24 03:07:51;;;;;;;24.02;16.08;;;;;;;23.44;79.46;99492.16;5033507;28;20053;-69
2021/06/24 03:10:36;;;;;;;21.73;14.48;;;;;;;23.46;79.25;99492.06;5033646;28;20100;-70
2021/06/24 03:13:12;;;;;;;25.42;15.63;;;;;;;23.49;79.19;99503.13;5033433;28;20092;-70
2021/06/24 03:15:46;;;;;;;24.38;15.38;;;;;;;23.49;79.12;99503.13;5033660;28;20493;-70
2021/06/24 03:18:16;;;;;;;24.48;16.13;;;;;;;23.52;79.12;99500.34;5034037;28;20136;-69
2021/06/24 03:20:45;;;;;;;25.38;15.38;;;;;;;23.54;79.25;99501.09;5019870;28;20049;-71
2021/06/24 03:23:19;;;;;;;23.85;15.50;;;;;;;23.58;79.20;99507.00;5020317;28;20057;-70
2021/06/24 03:25:55;;;;;;;28.92;15.95;;;;;;;23.60;78.97;99506.00;5037397;28;20045;-70
2021/06/24 03:28:29;;;;;;;27.38;14.93;;;;;;;23.58;78.75;99507.84;5019865;28;20065;-70
2021/06/24 03:31:08;;;;;;;24.98;15.77;;;;;;;23.58;78.59;99501.78;5037456;28;20065;-70
2021/06/24 03:33:38;;;;;;;23.58;15.75;;;;;;;23.58;78.71;99497.41;5037359;28;20447;-71
2021/06/24 03:36:12;;;;;;;24.67;17.00;;;;;;;23.57;78.59;99489.66;5037503;28;20408;-70
2021/06/24 03:38:48;;;;;;;26.42;16.08;;;;;;;23.61;78.61;99497.22;5037352;28;20628;-70
2021/06/24 03:41:27;;;;;;;25.95;16.83;;;;;;;23.60;78.67;99495.56;5037273;28;20053;-70
2021/06/24 03:43:59;;;;;;;24.42;15.43;;;;;;;23.62;78.86;99495.47;5037317;28;20167;-70
2021/06/24 03:46:37;;;;;;;23.77;15.57;;;;;;;23.68;78.77;99488.13;5037029;28;20468;-70
2021/06/24 03:49:11;;;;;;;22.90;16.08;;;;;;;23.71;78.90;99487.97;5019516;28;20057;-70
2021/06/24 03:51:45;;;;;;;25.50;15.95;;;;;;;23.77;78.82;99477.19;5037100;28;20059;-69
2021/06/24 03:54:18;;;;;;;26.30;16.45;;;;;;;23.86;78.47;99492.31;5036779;28;20060;-70
2021/06/24 03:56:51;;;;;;;27.33;16.27;;;;;;;23.93;78.35;99488.41;5037788;28;20141;-70
2021/06/24 03:59:24;;;;;;;23.58;16.52;;;;;;;23.97;78.19;99484.69;5019357;28;20504;-70
2021/06/24 04:02:03;;;;;;;23.77;15.45;;;;;;;24.01;78.02;99490.56;5037230;28;20064;-71
2021/06/24 04:04:36;;;;;;;25.80;16.23;;;;;;;24.10;77.85;99484.00;5019607;28;20048;-70
2021/06/24 04:07:10;;;;;;;24.92;15.95;;;;;;;24.19;77.79;99478.22;5036871;28;20065;-70
2021/06/24 04:09:42;;;;;;;25.70;16.23;;;;;;;24.23;77.56;99484.97;5036739;28;20081;-71
2021/06/24 04:12:12;;;;;;;26.48;15.90;;;;;;;24.32;77.46;99484.41;5036659;28;20462;-71
2021/06/24 04:15:06;;;;;;;23.10;16.17;;;;;;;24.38;77.36;99482.25;5028255;28;20048;-70
2021/06/24 04:17:44;;;;;;;25.90;15.98;;;;;;;24.50;77.16;99484.13;5018989;28;20049;-70
2021/06/24 04:20:21;;;;;;;24.80;16.05;;;;;;;24.62;76.99;99482.53;5036554;28;20057;-71
2021/06/24 04:22:55;;;;;;;28.13;16.10;;;;;;;24.71;76.64;99476.78;5036750;28;20476;-70
2021/06/24 04:25:33;;;;;;;27.83;16.13;;;;;;;24.82;76.49;99479.59;5037629;28;20057;-70
2021/06/24 04:28:07;;;;;;;25.38;15.00;;;;;;;24.92;76.05;99480.69;5036447;28;20053;-70
2021/06/24 04:30:47;;;;;;;26.80;15.68;;;;;;;25.00;75.65;99482.81;5018145;28;20539;-71
2021/06/24 04:33:21;;;;;;;22.25;15.80;;;;;;;25.04;75.81;99482.53;5036047;28;20130;-70
2021/06/24 04:36:20;;;;;;;24.00;15.45;;;;;;;25.17;75.63;99474.75;5033537;28;20082;-70
2021/06/24 04:38:59;;;;;;;24.20;15.07;;;;;;;25.31;75.21;99478.16;5036331;28;20053;-70
2021/06/24 04:41:34;;;;;;;28.20;15.98;;;;;;;25.47;75.05;99479.81;5036795;28;20082;-70
2021/06/24 04:44:10;;;;;;;26.90;16.25;;;;;;;25.59;74.67;99481.63;5035924;28;20041;-70
2021/06/24 04:46:41;;;;;;;26.60;15.75;;;;;;;25.77;74.28;99485.66;5036145;28;20496;-70
2021/06/24 04:49:16;;;;;;;22.20;14.75;;;;;;;25.93;73.54;99479.31;5036281;28;20072;-70
2021/06/24 04:52:00;;;;;;;22.65;15.20;;;;;;;26.08;72.89;99480.06;5038494;28;20415;-70
2021/06/24 04:54:49;;;;;;;26.15;14.82;;;;;;;26.17;72.68;99482.09;5038043;28;20523;-70
2021/06/24 04:57:25;;;;;;;23.65;15.80;;;;;;;26.31;72.79;99482.00;5036805;28;20046;-70
2021/06/24 05:00:21;;;;;;;24.55;14.82;;;;;;;26.43;72.20;99470.69;4993523;28;20050;-70
2021/06/24 05:03:01;;;;;;;23.83;15.15;;;;;;;26.60;71.73;99470.34;4994105;28;20051;-70
2021/06/24 05:05:44;;;;;;;21.70;15.07;;;;;;;26.68;71.20;99468.97;4978200;28;20046;-70
2021/06/24 05:08:17;;;;;;;23.73;14.55;;;;;;;26.73;70.96;99472.13;4994468;28;20466;-69
2021/06/24 05:10:47;;;;;;;21.17;14.68;;;;;;;26.84;70.93;99474.84;4994229;28;20452;-70
2021/06/24 05:13:16;;;;;;;19.50;13.95;;;;;;;26.95;70.21;99472.28;4994007;28;20218;-70
2021/06/24 05:15:46;;;;;;;20.42;13.88;;;;;;;27.05;70.00;99475.94;4994271;28;20468;-70
2021/06/24 05:18:19;;;;;;;19.45;13.63;;;;;;;27.13;69.15;99471.81;4994156;28;20050;-70
2021/06/24 05:20:54;;;;;;;24.38;14.25;;;;;;;27.26;69.06;99477.00;4993988;28;20054;-70
2021/06/24 05:23:29;;;;;;;19.42;13.40;;;;;;;27.41;69.33;99486.41;4994026;28;20058;-70
2021/06/24 05:25:58;;;;;;;21.40;12.98;;;;;;;27.51;68.75;99468.22;4994046;28;20138;-70
2021/06/24 05:28:31;;;;;;;22.25;13.63;;;;;;;27.57;68.71;99476.47;4993912;28;20052;-70
2021/06/24 05:31:03;;;;;;;19.65;13.10;;;;;;;27.72;68.46;99477.97;5006893;28;20067;-70
2021/06/24 05:33:36;;;;;;;21.35;14.60;;;;;;;27.79;68.03;99471.31;5035317;28;20396;-70
2021/06/24 05:36:09;;;;;;;18.25;12.80;;;;;;;27.87;67.71;99458.47;5034961;28;20053;-70
2021/06/24 05:38:42;;;;;;;19.05;12.88;;;;;;;28.00;67.19;99468.06;5034947;28;20515;-70
2021/06/24 05:41:15;;;;;;;24.30;12.68;;;;;;;28.13;66.58;99467.00;5034933;28;20060;-69
2021/06/24 05:43:44;;;;;;;21.70;12.07;;;;;;;28.26;66.62;99469.53;5034213;28;20052;-70
2021/06/24 05:46:17;;;;;;;19.48;12.20;;;;;;;28.44;66.31;99478.63;5034654;28;20595;-70
2021/06/24 05:48:51;;;;;;;18.70;12.23;;;;;;;28.54;66.10;99475.19;5034924;28;20112;-70
2021/06/24 05:51:25;;;;;;;18.50;11.50;;;;;;;28.65;64.94;99473.53;5035144;28;20539;-69
2021/06/24 05:53:57;;;;;;;18.10;11.85;;;;;;;28.77;64.30;99481.28;5034705;28;20049;-69
2021/06/24 05:56:30;;;;;;;17.58;12.20;;;;;;;28.79;63.82;99474.13;5034637;28;20103;-70
2021/06/24 05:59:06;;;;;;;22.30;11.85;;;;;;;28.85;63.08;99473.63;5034718;28;20057;-69
2021/06/24 06:01:42;;;;;;;19.65;11.15;;;;;;;28.94;62.99;99467.63;5034220;28;20107;-70
2021/06/24 06:04:18;;;;;;;18.10;11.00;;;;;;;29.03;62.60;99472.16;5034591;28;20099;-70
2021/06/24 06:06:52;;;;;;;18.52;10.70;;;;;;;29.13;62.18;99472.28;5034804;28;20057;-70
2021/06/24 06:09:21;;;;;;;15.63;10.40;;;;;;;29.20;61.65;99457.72;5034495;28;20061;-69
2021/06/24 06:11:54;;;;;;;17.23;10.77;;;;;;;29.39;61.36;99468.41;5034495;28;20073;-69
2021/06/24 06:14:27;;;;;;;18.45;10.52;;;;;;;29.47;60.68;99465.97;5034334;28;20042;-69
2021/06/24 06:17:00;;;;;;;14.70;10.40;;;;;;;29.52;60.82;99468.22;5034384;28;20096;-69
2021/06/24 06:19:32;;;;;;;19.83;11.25;;;;;;;29.63;60.39;99473.47;5016692;28;20053;-70
2021/06/24 06:22:07;;;;;;;15.07;10.18;;;;;;;29.74;59.61;99463.72;5034331;28;20481;-70
2021/06/24 06:24:41;;;;;;;15.80;10.25;;;;;;;29.70;59.64;99467.56;5034061;28;20124;-70
2021/06/24 06:27:13;;;;;;;16.17;10.60;;;;;;;29.81;59.04;99471.94;5034119;28;20488;-69
2021/06/24 06:29:42;;;;;;;14.98;10.07;;;;;;;29.93;58.93;99472.72;5034107;28;20045;-70
2021/06/24 06:32:15;;;;;;;17.70;10.10;;;;;;;29.97;59.03;99480.22;5033664;28;20045;-69
2021/06/24 06:34:44;;;;;;;17.50;9.82;;;;;;;30.15;58.57;99475.22;5016317;28;20125;-70
2021/06/24 06:37:14;;;;;;;14.85;9.25;;;;;;;30.33;58.46;99466.63;5015741;28;20037;-70
2021/06/24 06:39:44;;;;;;;18.10;10.07;;;;;;;30.40;57.45;99457.22;5033820;28;20448;-69
2021/06/24 06:42:13;;;;;;;14.40;9.82;;;;;;;30.40;56.79;99454.59;5033839;28;20029;-70
2021/06/24 06:44:50;;;;;;;14.30;9.27;;;;;;;30.41;56.80;99443.09;5033810;28;20144;-69
2021/06/24 06:47:20;;;;;;;13.38;9.20;;;;;;;30.55;56.82;99449.81;5034209;28;20099;-69
2021/06/24 06:50:16;;;;;;;14.35;10.07;;;;;;;30.46;56.26;99459.34;5033528;28;20054;-69
2021/06/24 06:52:47;;;;;;;14.80;9.65;;;;;;;30.54;55.80;99458.69;5033697;28;20084;-69
2021/06/24 06:55:17;;;;;;;15.75;9.02;;;;;;;30.48;55.33;99467.94;5033426;28;20095;-70
2021/06/24 06:57:46;;;;;;;15.27;9.57;;;;;;;30.55;55.79;99468.25;5033458;28;20037;-70
2021/06/24 07:00:18;;;;;;;14.68;8.82;;;;;;;30.80;54.86;99459.91;5033273;28;20076;-69
2021/06/24 07:02:47;;;;;;;11.82;8.30;;;;;;;31.01;54.53;99468.56;5015971;28;20049;-69
2021/06/24 07:05:17;;;;;;;12.75;8.85;;;;;;;31.16;54.46;99471.66;5033763;28;20072;-69
2021/06/24 07:07:48;;;;;;;14.07;8.20;;;;;;;31.27;53.82;99471.53;5033241;28;20045;-71
2021/06/24 07:10:18;;;;;;;14.45;8.07;;;;;;;31.37;53.67;99464.47;5033494;28;20096;-70
2021/06/24 07:12:48;;;;;;;12.73;8.43;;;;;;;31.39;53.19;99467.78;5033343;28;20050;-69
2021/06/24 07:15:21;;;;;;;13.52;8.82;;;;;;;31.49;52.85;99467.81;5033110;28;20096;-69
2021/06/24 07:17:51;;;;;;;14.82;8.43;;;;;;;31.50;54.08;99462.44;5033362;28;20046;-69
2021/06/24 07:20:20;;;;;;;11.50;8.00;;;;;;;31.71;53.55;99473.69;5033372;28;20053;-69
2021/06/24 07:22:54;;;;;;;12.90;8.40;;;;;;;31.82;53.34;99469.22;5033475;28;20068;-70
2021/06/24 07:25:24;;;;;;;13.23;8.13;;;;;;;31.95;53.60;99469.75;5016101;28;20055;-70
2021/06/24 07:27:54;;;;;;;14.90;8.50;;;;;;;32.11;53.89;99467.38;5032926;28;20060;-70
2021/06/24 07:30:23;;;;;;;;;;;;;;;32.10;53.63;99474.50;5033736;28;20049;-70
2021/06/24 07:32:52;;;;;;;12.23;7.60;;;;;;;31.98;52.96;99485.34;5033235;28;20011;-72
2021/06/24 07:35:22;;;;;;;11.40;7.28;;;;;;;31.76;51.75;99486.44;5033109;28;20132;-70
2021/06/24 07:37:57;;;;;;;11.25;7.60;;;;;;;31.86;51.68;99481.16;5033471;28;20554;-70
2021/06/24 07:40:27;;;;;;;13.85;7.70;;;;;;;31.72;51.94;99483.25;5033402;28;20104;-69
2021/06/24 07:42:56;;;;;;;11.23;7.50;;;;;;;31.70;52.28;99477.28;5033129;28;20050;-70
2021/06/24 07:45:25;;;;;;;15.05;7.82;;;;;;;31.85;51.71;99484.75;5032967;28;20394;-69
2021/06/24 07:47:55;;;;;;;12.10;7.40;;;;;;;31.98;52.12;99474.78;5032946;28;20061;-69
2021/06/24 07:50:27;;;;;;;11.43;7.38;;;;;;;32.17;51.59;99474.75;5033398;28;20046;-70
2021/06/24 07:53:02;;;;;;;13.98;7.50;;;;;;;32.41;51.21;99473.28;5033596;28;20061;-71
2021/06/24 07:55:34;;;;;;;14.27;7.35;;;;;;;32.41;51.12;99461.88;5032752;28;20077;-71
2021/06/24 07:58:06;;;;;;;14.73;6.45;;;;;;;32.43;49.99;99465.22;5033274;28;20053;-71
2021/06/24 08:00:37;;;;;;;11.05;6.47;;;;;;;32.36;49.61;99469.41;5032582;28;20072;-70
2021/06/24 08:03:30;;;;;;;10.77;6.30;;;;;;;32.47;49.84;99470.06;5033021;28;20061;-70
2021/06/24 08:06:04;;;;;;;10.20;6.00;;;;;;;32.31;49.29;99455.78;5034684;28;20061;-69
2021/06/24 08:08:38;;;;;;;10.25;6.50;;;;;;;32.37;48.34;99466.59;5036733;28;20050;-69
2021/06/24 08:11:08;;;;;;;8.18;5.75;;;;;;;32.55;49.07;99469.38;5036682;28;20065;-69
2021/06/24 08:13:37;;;;;;;10.77;6.30;;;;;;;32.73;48.21;99457.03;5036596;28;20053;-69
2021/06/24 08:16:10;;;;;;;12.27;5.72;;;;;;;32.61;46.34;99474.06;5036320;28;20045;-70
2021/06/24 08:18:42;;;;;;;10.88;5.30;;;;;;;32.53;46.90;99471.31;5036515;28;20053;-69
2021/06/24 08:21:11;;;;;;;11.27;6.13;;;;;;;32.62;47.13;99470.44;5036621;28;20060;-69
2021/06/24 08:23:48;;;;;;;8.25;5.72;;;;;;;32.79;47.79;99448.53;5036627;28;20088;-69
2021/06/24 08:26:18;;;;;;;9.80;6.22;;;;;;;32.94;47.62;99454.97;5036299;28;20519;-69
2021/06/24 08:28:51;;;;;;;11.50;5.97;;;;;;;33.02;47.93;99448.94;5036291;28;20191;-68
2021/06/24 08:31:20;;;;;;;8.10;4.85;;;;;;;33.12;46.22;99455.03;5036068;28;20461;-69
2021/06/24 08:33:50;;;;;;;7.88;4.70;;;;;;;33.06;45.71;99459.13;5035868;28;20132;-69
2021/06/24 08:36:20;;;;;;;7.25;4.85;;;;;;;33.14;45.41;99454.88;5035845;28;20132;-68
2021/06/24 08:38:50;;;;;;;8.35;5.15;;;;;;;32.95;45.85;99445.22;5035798;28;20389;-69
2021/06/24 08:41:20;;;;;;;12.90;5.28;;;;;;;32.91;45.38;99449.16;5035921;28;20531;-69
2021/06/24 08:43:51;;;;;;;10.00;5.50;;;;;;;32.75;45.08;99455.09;5035755;28;20042;-70
2021/06/24 08:46:22;;;;;;;10.57;4.53;;;;;;;32.65;45.89;99448.19;5035138;28;20056;-69
2021/06/24 08:48:51;;;;;;;10.45;5.03;;;;;;;32.79;46.22;99445.03;5032697;28;20037;-69
2021/06/24 08:51:20;;;;;;;13.63;5.57;;;;;;;32.87;45.56;99442.50;5035057;28;20053;-68
2021/06/24 08:53:55;;;;;;;8.45;5.05;;;;;;;33.05;46.37;99452.16;5033173;28;20044;-69
2021/06/24 08:56:28;;;;;;;9.32;5.20;;;;;;;33.11;46.73;99456.03;5035562;28;20081;-68
2021/06/24 08:58:57;;;;;;;12.07;5.18;;;;;;;33.13;46.24;99448.75;5035930;28;20053;-69
2021/06/24 09:01:51;;;;;;;8.25;4.65;;;;;;;33.25;46.14;99467.91;5035332;28;20060;-69
2021/06/24 09:04:35;;;;;;;10.80;5.28;;;;;;;33.22;45.94;99460.25;5035587;28;20049;-71
2021/06/24 09:07:16;;;;;;;9.13;4.53;;;;;;;33.33;45.54;99460.03;5035647;28;20137;-69
2021/06/24 09:09:54;;;;;;;9.45;4.90;;;;;;;33.49;45.24;99463.69;5035671;28;20496;-71
2021/06/24 09:12:25;;;;;;;9.85;5.25;;;;;;;33.49;44.12;99466.31;5035297;28;20132;-70
2021/06/24 09:15:02;;;;;;;8.85;4.72;;;;;;;33.42;44.35;99462.63;5035346;28;20053;-71
2021/06/24 09:17:35;;;;;;;11.25;5.28;;;;;;;33.64;44.71;99464.00;5035018;28;20053;-70
2021/06/24 09:20:29;;;;;;;8.80;4.20;;;;;;;33.81;44.79;99470.25;5035228;28;20080;-69
2021/06/24 09:23:14;;;;;;;7.63;4.68;;;;;;;33.99;43.62;99463.09;5035020;28;20058;-69
2021/06/24 09:26:17;;;;;;;10.05;4.97;;;;;;;34.15;43.44;99464.06;4990135;28;20124;-69
2021/06/24 09:28:49;;;;;;;;;;;;;;;34.05;44.17;99473.94;5035512;28;20504;-70
2021/06/24 09:31:23;;;;;;;8.30;5.03;;;;;;;33.58;44.37;99465.44;5035134;28;19947;-70
2021/06/24 09:33:59;;;;;;;9.25;4.57;;;;;;;33.46;44.67;99463.13;5034974;28;20077;-70
2021/06/24 09:36:40;;;;;;;9.40;4.88;;;;;;;33.55;45.10;99464.91;5034627;28;20045;-70
2021/06/24 09:39:11;;;;;;;10.18;4.63;;;;;;;33.57;44.02;99462.94;5034653;28;20148;-71
2021/06/24 09:41:59;;;;;;;9.00;5.13;;;;;;;33.91;43.96;99466.53;5034822;28;20046;-69
2021/06/24 09:44:30;;;;;;;12.05;5.18;;;;;;;34.09;44.01;99464.72;5034751;28;20092;-71
2021/06/24 09:47:01;;;;;;;8.73;4.63;;;;;;;33.96;44.21;99453.63;5034425;28;20053;-70
2021/06/24 09:49:33;;;;;;;9.65;5.30;;;;;;;33.88;44.08;99460.72;5034918;28;20049;-70
2021/06/24 09:52:05;;;;;;;10.48;5.10;;;;;;;33.67;43.80;99453.09;5034891;28;20060;-70
2021/06/24 09:54:37;;;;;;;11.07;4.82;;;;;;;33.67;43.12;99431.91;5035058;28;20522;-70
2021/06/24 09:57:26;;;;;;;12.13;4.68;;;;;;;34.05;43.14;99442.13;5034500;28;20042;-70
2021/06/24 10:00:20;;;;;;;10.38;4.90;;;;;;;34.11;42.46;99441.53;5033812;28;20049;-69
2021/06/24 10:03:07;;;;;;;10.93;5.00;;;;;;;34.20;43.32;99440.56;5034606;28;20054;-69
2021/06/24 10:05:40;;;;;;;10.32;4.72;;;;;;;34.25;43.57;99440.09;5034732;28;20057;-69
2021/06/24 10:08:10;;;;;;;11.00;5.35;;;;;;;34.12;42.62;99443.16;5034981;28;20107;-70
2021/06/24 10:10:42;;;;;;;7.25;4.65;;;;;;;34.15;42.69;99437.56;5034340;28;20566;-69
2021/06/24 10:13:13;;;;;;;8.38;4.72;;;;;;;34.06;43.21;99437.66;5034267;28;20128;-69
2021/06/24 10:15:44;;;;;;;9.13;5.03;;;;;;;33.98;43.57;99435.75;5034086;28;20157;-69
2021/06/24 10:18:20;;;;;;;10.20;5.47;;;;;;;34.09;42.85;99435.56;5034003;28;20056;-70
2021/06/24 10:20:50;;;;;;;8.65;4.97;;;;;;;34.07;42.90;99419.00;5034445;28;20063;-70
2021/06/24 10:23:23;;;;;;;12.25;4.57;;;;;;;34.21;42.56;99429.00;5034041;28;20065;-70
2021/06/24 10:25:53;;;;;;;10.93;5.45;;;;;;;34.16;43.42;99423.34;5033788;28;20042;-69
2021/06/24 10:28:25;;;;;;;9.27;5.28;;;;;;;34.34;42.70;99426.72;5033205;28;20120;-70
2021/06/24 10:30:54;;;;;;;9.23;4.82;;;;;;;34.50;42.79;99410.09;5034079;28;20045;-70
2021/06/24 10:33:23;;;;;;;9.52;5.10;;;;;;;34.58;42.50;99411.97;5016209;28;20076;-70
2021/06/24 10:35:52;;;;;;;;;;;;;;;34.57;42.93;99410.31;5034101;28;20041;-70
2021/06/24 10:38:40;;;;;;;8.25;5.63;;;;;;;34.17;43.36;99419.69;5033532;28;19979;-70
2021/06/24 10:41:10;;;;;;;11.30;5.95;;;;;;;34.28;43.86;99419.44;5033626;28;20069;-70
2021/06/24 10:43:48;;;;;;;11.80;5.90;;;;;;;34.63;43.38;99407.81;5033528;28;20049;-71
2021/06/24 10:46:20;;;;;;;10.77;5.50;;;;;;;34.63;43.50;99409.63;5033829;28;20481;-70
2021/06/24 10:48:50;;;;;;;9.65;5.60;;;;;;;34.87;43.42;99407.91;5033690;28;20084;-72
2021/06/24 10:51:20;;;;;;;11.32;5.55;;;;;;;34.93;42.92;99383.38;5033833;28;20056;-70
2021/06/24 10:53:53;;;;;;;9.55;5.43;;;;;;;34.75;42.79;99403.06;5033861;28;20551;-70
2021/06/24 10:56:33;;;;;;;10.27;5.30;;;;;;;34.91;42.47;99403.13;5033638;28;20053;-72
2021/06/24 10:59:34;;;;;;;8.45;5.38;;;;;;;35.02;42.40;99400.13;5033770;28;20405;-71
2021/06/24 11:02:14;;;;;;;8.57;5.32;;;;;;;35.02;42.68;99400.13;5033669;28;20061;-70
2021/06/24 11:04:46;;;;;;;11.82;5.53;;;;;;;34.83;43.36;99400.44;5033931;28;20060;-71
2021/06/24 11:07:21;;;;;;;12.20;5.40;;;;;;;34.78;42.75;99406.22;5033654;28;20049;-70
2021/06/24 11:10:22;;;;;;;8.60;5.47;;;;;;;34.88;42.81;99398.13;5033656;28;20056;-70
2021/06/24 11:13:14;;;;;;;9.65;5.78;;;;;;;35.21;42.80;99405.19;5033903;28;20048;-71
2021/06/24 11:15:53;;;;;;;10.52;4.97;;;;;;;35.33;43.01;99395.88;4953607;29;20047;-70
2021/06/24 11:18:52;;;;;;;12.45;5.30;;;;;;;35.49;42.85;99395.88;5031734;28;20489;-71
2021/06/24 11:21:54;;;;;;;11.38;5.47;;;;;;;35.41;42.34;99398.56;5033417;28;20112;-71
2021/06/24 11:24:28;;;;;;;8.60;5.53;;;;;;;35.52;42.34;99400.91;5033274;28;20077;-72
2021/06/24 11:27:02;;;;;;;9.27;5.18;;;;;;;35.64;42.06;99412.00;5033385;28;20080;-72
2021/06/24 11:29:46;;;;;;;10.57;5.47;;;;;;;35.62;42.44;99393.59;5033439;28;20053;-71
2021/06/24 11:32:21;;;;;;;9.57;5.57;;;;;;;35.61;42.03;99407.88;5033441;28;20378;-71
2021/06/24 11:35:02;;;;;;;13.73;5.63;;;;;;;35.44;41.63;99395.53;5033407;28;20519;-72
2021/06/24 11:37:37;;;;;;;8.98;5.30;;;;;;;35.55;42.15;99400.56;5033087;28;20061;-70
2021/06/24 11:40:08;;;;;;;8.27;5.43;;;;;;;35.43;42.40;99382.44;5035272;28;20163;-72
2021/06/24 11:42:41;;;;;;;11.00;5.25;;;;;;;35.52;42.76;99392.94;5036758;28;20111;-71
2021/06/24 11:45:13;;;;;;;9.00;5.40;;;;;;;35.58;42.39;99389.63;5036461;28;20045;-70
2021/06/24 11:47:46;;;;;;;7.82;5.57;;;;;;;35.71;41.39;99377.66;5034084;28;20041;-70
2021/06/24 12:04:01;;;;;;;11.32;4.88;;;;;;;35.98;39.72;99363.97;4993915;28;20057;-70
2021/06/24 12:06:42;;;;;;;9.82;4.63;;;;;;;36.03;39.47;99364.31;5018918;28;20058;-70
2021/06/24 12:09:12;;;;;;;8.73;4.57;;;;;;;36.16;39.40;99360.09;5016832;28;20046;-70
2021/06/24 12:11:42;;;;;;;10.55;4.40;;;;;;;36.24;39.21;99357.44;5016793;28;20057;-71
2021/06/24 12:14:21;;;;;;;;;;;;;;;36.15;39.14;99354.97;5017092;28;20046;-73